Big Glory — H9IF — position and weather

sailwx.info

Track history (hours):
 
Tides and Currents Weather Stations Pressure Air Temp Water Temp Dewpoint Dewpoint Depression Visibility Wind Speed Wind Dir Waves Ship Positions

Big Glory

Last reported at 2016-Mar-19 19:28 UTC. Time now 2016-Apr-30 01:31 UTC.
Position N 30°01' W 122°06'.
Warning: this ship's position is 41 days out of date.

Length 190 m; draft 10.8 m.

Type: Ship. MMSI: 354285000.

Date/timePositionNaut miles runAvg speedWind from/ knotsBaromVisibWave heightAir tempDewpointWater temp
2016-Mar-19 19:28N 30°01' W 122°06'1112.0
2016-Mar-19 18:33N 30°10' W 122°13'1211.9
2016-Mar-19 17:33N 30°20' W 122°21'1212.0
2016-Mar-19 16:32N 30°30' W 122°29'14512.1
2016-Mar-19 04:30N 32°29' W 124°06'1412.1
2016-Mar-19 03:19N 32°42' W 124°15'26611.7
2016-Mar-18 04:33N 36°21' W 127°17'1211.7
2016-Mar-18 03:33N 36°31' W 127°25'3411.5
2016-Mar-18 00:33N 36°59' W 127°49'4011.4
2016-Mar-17 21:04N 37°37' W 128°05'  
2016-Mar-15 01:06N 48°12' W 125°40'5 8.0
2016-Mar-15 00:28N 48°14' W 125°33'8 8.3
2016-Mar-14 23:32N 48°19' W 125°24'11 8.4
2016-Mar-14 22:16N 48°24' W 125°10'7 9.2
2016-Mar-14 21:28N 48°29' W 125°03'4310.7
2016-Mar-14 17:27N 48°18' W 123°60'1111.4
2016-Mar-14 16:30N 48°16' W 123°44'1010.1
2016-Mar-14 15:33N 48°16' W 123°29'9 8.6
2016-Mar-14 14:33N 48°23' W 123°21'9 9.1
2016-Mar-14 13:33N 48°30' W 123°13'1211.7
2016-Mar-14 12:33N 48°42' W 123°15'1111.4
2016-Mar-14 11:33N 48°48' W 123°00'1212.2
2016-Mar-14 10:33N 48°57' W 123°13'1211.9
2016-Mar-14 09:33N 49°07' W 123°24'1212.3
2016-Mar-14 08:33N 49°18' W 123°17'9 8.9
2016-Mar-14 07:34N 49°18' W 123°03'0 0.1
2016-Mar-14 06:32N 49°18' W 123°03'0 0.0
2016-Mar-14 05:32N 49°18' W 123°03'0 0.0
2016-Mar-14 04:32N 49°18' W 123°03'0 0.0
2016-Mar-14 03:32N 49°18' W 123°03'0 0.0
2016-Mar-14 02:32N 49°18' W 123°03'0 0.0
2016-Mar-14 01:32N 49°18' W 123°03'0 0.0
2016-Mar-14 00:32N 49°18' W 123°03'0 0.0
2016-Mar-13 23:32N 49°18' W 123°03'0 0.0
2016-Mar-13 22:32N 49°18' W 123°03'0 0.0
2016-Mar-13 21:32N 49°18' W 123°03'0 0.0
2016-Mar-13 20:32N 49°18' W 123°03'0 0.0
2016-Mar-13 19:32N 49°18' W 123°03'0 0.0
2016-Mar-13 18:32N 49°18' W 123°03'0 0.0
2016-Mar-13 17:32N 49°18' W 123°03'0 0.0
2016-Mar-13 16:32N 49°18' W 123°03'0 0.0
2016-Mar-13 15:32N 49°18' W 123°03'0 0.0
2016-Mar-13 14:32N 49°18' W 123°03'0 0.0
2016-Mar-13 13:32N 49°18' W 123°03'0 0.0
2016-Mar-13 12:32N 49°18' W 123°03'0 0.0
2016-Mar-13 11:32N 49°18' W 123°03'0 0.0
2016-Mar-13 10:32N 49°18' W 123°03'0 0.0
2016-Mar-13 09:32N 49°18' W 123°03'0 0.0
2016-Mar-13 08:32N 49°18' W 123°03'0 0.0
2016-Mar-13 07:32N 49°18' W 123°03'0 0.0
2016-Mar-13 06:32N 49°18' W 123°03'0 0.0
2016-Mar-13 05:32N 49°18' W 123°03'0 0.0
2016-Mar-13 04:32N 49°18' W 123°03'0 0.0
2016-Mar-13 03:32N 49°18' W 123°03'0 0.0
2016-Mar-13 02:32N 49°18' W 123°03'1 1.2
2016-Mar-13 01:34N 49°18' W 123°05'9 9.4
2016-Mar-13 00:33N 49°15' W 123°18'1313.1
2016-Mar-12 23:34N 49°02' W 123°17'1414.0
2016-Mar-12 22:33N 48°52' W 123°02'1110.5
2016-Mar-12 21:34N 48°43' W 123°11'1010.0
2016-Mar-12 20:34N 48°33' W 123°12'1010.1
2016-Mar-12 19:34N 48°23' W 123°15'9 8.6
2016-Mar-12 18:34N 48°18' W 123°25'4 4.0
2016-Mar-12 17:33N 48°14' W 123°28'9 9.4
2016-Mar-12 16:34N 48°13' W 123°42'1212.1
2016-Mar-12 15:33N 48°15' W 124°00'1312.8
2016-Mar-12 14:32N 48°20' W 124°18'3712.4
2016-Mar-12 11:33N 48°29' W 125°12'1212.4
2016-Mar-12 10:33N 48°22' W 125°28'1412.5
2016-Mar-12 09:28N 48°15' W 125°44'  
Track history (hours):
 
Tides and Currents Weather Stations Pressure Air Temp Water Temp Dewpoint Dewpoint Depression Visibility Wind Speed Wind Dir Waves Ship Positions

Big Glory

Last reported at 2016-Mar-19 19:28 UTC. Time now 2016-Apr-30 01:31 UTC.
Position N 30°01' W 122°06'.
Warning: this ship's position is 41 days out of date.

Length 190 m; draft 10.8 m.

Type: Ship. MMSI: 354285000.

Date/timePositionNaut miles runAvg speedWind from/ knotsBaromVisibWave heightAir tempDewpointWater temp
2016-Mar-19 19:28N 30°01' W 122°06'1112.0
2016-Mar-19 18:33N 30°10' W 122°13'1211.9
2016-Mar-19 17:33N 30°20' W 122°21'1212.0
2016-Mar-19 16:32N 30°30' W 122°29'14512.1
2016-Mar-19 04:30N 32°29' W 124°06'1412.1
2016-Mar-19 03:19N 32°42' W 124°15'26611.7
2016-Mar-18 04:33N 36°21' W 127°17'1211.7
2016-Mar-18 03:33N 36°31' W 127°25'3411.5
2016-Mar-18 00:33N 36°59' W 127°49'4011.4
2016-Mar-17 21:04N 37°37' W 128°05'  
2016-Mar-15 01:06N 48°12' W 125°40'5 8.0
2016-Mar-15 00:28N 48°14' W 125°33'8 8.3
2016-Mar-14 23:32N 48°19' W 125°24'11 8.4
2016-Mar-14 22:16N 48°24' W 125°10'7 9.2
2016-Mar-14 21:28N 48°29' W 125°03'4310.7
2016-Mar-14 17:27N 48°18' W 123°60'1111.4
2016-Mar-14 16:30N 48°16' W 123°44'1010.1
2016-Mar-14 15:33N 48°16' W 123°29'9 8.6
2016-Mar-14 14:33N 48°23' W 123°21'9 9.1
2016-Mar-14 13:33N 48°30' W 123°13'1211.7
2016-Mar-14 12:33N 48°42' W 123°15'1111.4
2016-Mar-14 11:33N 48°48' W 123°00'1212.2
2016-Mar-14 10:33N 48°57' W 123°13'1211.9
2016-Mar-14 09:33N 49°07' W 123°24'1212.3
2016-Mar-14 08:33N 49°18' W 123°17'9 8.9
2016-Mar-14 07:34N 49°18' W 123°03'0 0.1
2016-Mar-14 06:32N 49°18' W 123°03'0 0.0
2016-Mar-14 05:32N 49°18' W 123°03'0 0.0
2016-Mar-14 04:32N 49°18' W 123°03'0 0.0
2016-Mar-14 03:32N 49°18' W 123°03'0 0.0
2016-Mar-14 02:32N 49°18' W 123°03'0 0.0
2016-Mar-14 01:32N 49°18' W 123°03'0 0.0
2016-Mar-14 00:32N 49°18' W 123°03'0 0.0
2016-Mar-13 23:32N 49°18' W 123°03'0 0.0
2016-Mar-13 22:32N 49°18' W 123°03'0 0.0
2016-Mar-13 21:32N 49°18' W 123°03'0 0.0
2016-Mar-13 20:32N 49°18' W 123°03'0 0.0
2016-Mar-13 19:32N 49°18' W 123°03'0 0.0
2016-Mar-13 18:32N 49°18' W 123°03'0 0.0
2016-Mar-13 17:32N 49°18' W 123°03'0 0.0
2016-Mar-13 16:32N 49°18' W 123°03'0 0.0
2016-Mar-13 15:32N 49°18' W 123°03'0 0.0
2016-Mar-13 14:32N 49°18' W 123°03'0 0.0
2016-Mar-13 13:32N 49°18' W 123°03'0 0.0
2016-Mar-13 12:32N 49°18' W 123°03'0 0.0
2016-Mar-13 11:32N 49°18' W 123°03'0 0.0
2016-Mar-13 10:32N 49°18' W 123°03'0 0.0
2016-Mar-13 09:32N 49°18' W 123°03'0 0.0
2016-Mar-13 08:32N 49°18' W 123°03'0 0.0
2016-Mar-13 07:32N 49°18' W 123°03'0 0.0
2016-Mar-13 06:32N 49°18' W 123°03'0 0.0
2016-Mar-13 05:32N 49°18' W 123°03'0 0.0
2016-Mar-13 04:32N 49°18' W 123°03'0 0.0
2016-Mar-13 03:32N 49°18' W 123°03'0 0.0
2016-Mar-13 02:32N 49°18' W 123°03'1 1.2
2016-Mar-13 01:34N 49°18' W 123°05'9 9.4
2016-Mar-13 00:33N 49°15' W 123°18'1313.1
2016-Mar-12 23:34N 49°02' W 123°17'1414.0
2016-Mar-12 22:33N 48°52' W 123°02'1110.5
2016-Mar-12 21:34N 48°43' W 123°11'1010.0
2016-Mar-12 20:34N 48°33' W 123°12'1010.1
2016-Mar-12 19:34N 48°23' W 123°15'9 8.6
2016-Mar-12 18:34N 48°18' W 123°25'4 4.0
2016-Mar-12 17:33N 48°14' W 123°28'9 9.4
2016-Mar-12 16:34N 48°13' W 123°42'1212.1
2016-Mar-12 15:33N 48°15' W 124°00'1312.8
2016-Mar-12 14:32N 48°20' W 124°18'3712.4
2016-Mar-12 11:33N 48°29' W 125°12'1212.4
2016-Mar-12 10:33N 48°22' W 125°28'1412.5
2016-Mar-12 09:28N 48°15' W 125°44'  

Dump ship's entire track history